Terminal Aerodrome Forecast
Issued by NWS

Current Version | Previous Version | Text Only | Print | Product List | Glossary On
Versions: 1 2 3 4 5 6 7 8 9 10 11 12 13 14 15 16 17 18 19 20 21 22 23 24 25 26 27
000
FTUS41 KCAR 020100 AAB
TAFPQI
TAF AMD
KPQI 020120Z 0201/0224 13006KT 6SM BR BKN010
     FM020400 14005KT 1SM BR BKN005
     FM021200 15007KT 5SM BR BKN008
     FM021400 16008KT P6SM BKN020
     FM021900 18011KT P6SM BKN035
      AMD LTD TO CLD VIS AND WIND=

USA.gov is the U.S. government's official web portal to all federal, state and local government web resources and services.